sensor_id;sensor_type;location;lat;lon;timestamp;P1;durP1;ratioP1;P2;durP2;ratioP2
18399;SDS011;9326;49.468;11.008;2023-09-30T00:16:52;7.87;;;3.83;;
18399;SDS011;9326;49.468;11.008;2023-09-30T00:19:22;7.03;;;3.70;;
18399;SDS011;9326;49.468;11.008;2023-09-30T00:21:51;8.13;;;3.93;;
18399;SDS011;9326;49.468;11.008;2023-09-30T00:24:20;6.93;;;4.13;;
18399;SDS011;9326;49.468;11.008;2023-09-30T00:26:47;6.87;;;3.70;;
18399;SDS011;9326;49.468;11.008;2023-09-30T00:29:15;8.30;;;4.20;;
18399;SDS011;9326;49.468;11.008;2023-09-30T00:31:46;6.73;;;3.37;;
18399;SDS011;9326;49.468;11.008;2023-09-30T00:34:15;6.63;;;3.60;;
18399;SDS011;9326;49.468;11.008;2023-09-30T00:36:44;7.43;;;3.60;;
18399;SDS011;9326;49.468;11.008;2023-09-30T00:39:12;8.73;;;3.70;;
18399;SDS011;9326;49.468;11.008;2023-09-30T00:41:39;6.60;;;3.83;;
18399;SDS011;9326;49.468;11.008;2023-09-30T00:44:14;6.70;;;3.60;;
18399;SDS011;9326;49.468;11.008;2023-09-30T00:46:47;6.67;;;3.50;;
18399;SDS011;9326;49.468;11.008;2023-09-30T00:49:16;6.83;;;3.40;;
18399;SDS011;9326;49.468;11.008;2023-09-30T00:51:44;7.97;;;3.57;;
18399;SDS011;9326;49.468;11.008;2023-09-30T00:54:12;6.60;;;3.57;;
18399;SDS011;9326;49.468;11.008;2023-09-30T00:56:42;7.87;;;3.80;;
18399;SDS011;9326;49.468;11.008;2023-09-30T00:59:10;5.87;;;3.30;;
18399;SDS011;9326;49.468;11.008;2023-09-30T01:01:44;7.20;;;3.40;;
18399;SDS011;9326;49.468;11.008;2023-09-30T01:04:12;6.37;;;3.37;;
18399;SDS011;9326;49.468;11.008;2023-09-30T01:06:41;6.03;;;3.40;;
18399;SDS011;9326;49.468;11.008;2023-09-30T01:09:08;6.80;;;3.93;;
18399;SDS011;9326;49.468;11.008;2023-09-30T01:11:37;6.67;;;3.33;;
18399;SDS011;9326;49.468;11.008;2023-09-30T01:16:49;6.00;;;3.40;;
18399;SDS011;9326;49.468;11.008;2023-09-30T01:19:19;6.47;;;3.53;;
18399;SDS011;9326;49.468;11.008;2023-09-30T01:21:52;5.83;;;3.40;;
18399;SDS011;9326;49.468;11.008;2023-09-30T01:24:24;5.60;;;3.13;;
18399;SDS011;9326;49.468;11.008;2023-09-30T01:26:51;5.80;;;2.83;;
18399;SDS011;9326;49.468;11.008;2023-09-30T01:29:19;6.57;;;3.10;;
18399;SDS011;9326;49.468;11.008;2023-09-30T01:31:49;6.07;;;3.23;;
18399;SDS011;9326;49.468;11.008;2023-09-30T01:34:16;6.60;;;3.63;;
18399;SDS011;9326;49.468;11.008;2023-09-30T01:36:44;6.37;;;3.37;;
18399;SDS011;9326;49.468;11.008;2023-09-30T01:39:17;4.93;;;3.03;;
18399;SDS011;9326;49.468;11.008;2023-09-30T01:41:45;7.10;;;3.47;;
18399;SDS011;9326;49.468;11.008;2023-09-30T01:44:14;5.90;;;3.20;;
18399;SDS011;9326;49.468;11.008;2023-09-30T01:46:41;7.13;;;3.40;;
18399;SDS011;9326;49.468;11.008;2023-09-30T01:49:23;5.67;;;3.20;;
18399;SDS011;9326;49.468;11.008;2023-09-30T01:51:54;5.17;;;3.03;;
18399;SDS011;9326;49.468;11.008;2023-09-30T01:54:25;5.67;;;3.20;;
18399;SDS011;9326;49.468;11.008;2023-09-30T01:56:54;8.10;;;3.50;;
18399;SDS011;9326;49.468;11.008;2023-09-30T01:59:21;6.57;;;3.20;;
18399;SDS011;9326;49.468;11.008;2023-09-30T02:01:50;6.50;;;3.27;;
18399;SDS011;9326;49.468;11.008;2023-09-30T02:04:18;6.23;;;3.50;;
18399;SDS011;9326;49.468;11.008;2023-09-30T02:06:46;6.03;;;3.40;;
18399;SDS011;9326;49.468;11.008;2023-09-30T02:09:15;5.23;;;3.53;;
18399;SDS011;9326;49.468;11.008;2023-09-30T02:11:44;7.43;;;3.43;;
18399;SDS011;9326;49.468;11.008;2023-09-30T02:14:16;6.97;;;3.70;;
18399;SDS011;9326;49.468;11.008;2023-09-30T02:16:43;4.80;;;3.20;;
18399;SDS011;9326;49.468;11.008;2023-09-30T02:19:10;5.87;;;3.30;;
18399;SDS011;9326;49.468;11.008;2023-09-30T02:21:38;6.40;;;3.77;;
18399;SDS011;9326;49.468;11.008;2023-09-30T02:24:06;7.37;;;3.67;;
18399;SDS011;9326;49.468;11.008;2023-09-30T02:26:33;6.70;;;3.80;;
18399;SDS011;9326;49.468;11.008;2023-09-30T02:29:03;6.33;;;3.47;;
18399;SDS011;9326;49.468;11.008;2023-09-30T02:31:32;6.73;;;3.47;;
18399;SDS011;9326;49.468;11.008;2023-09-30T02:34:00;7.87;;;3.13;;
18399;SDS011;9326;49.468;11.008;2023-09-30T02:36:28;5.07;;;3.00;;
18399;SDS011;9326;49.468;11.008;2023-09-30T02:38:56;5.77;;;3.17;;
18399;SDS011;9326;49.468;11.008;2023-09-30T02:41:23;5.57;;;3.23;;
18399;SDS011;9326;49.468;11.008;2023-09-30T02:43:50;5.13;;;3.00;;
18399;SDS011;9326;49.468;11.008;2023-09-30T02:46:19;4.93;;;3.17;;
18399;SDS011;9326;49.468;11.008;2023-09-30T02:48:46;4.73;;;2.77;;
18399;SDS011;9326;49.468;11.008;2023-09-30T02:51:17;4.20;;;2.70;;
18399;SDS011;9326;49.468;11.008;2023-09-30T02:53:44;5.50;;;2.73;;
18399;SDS011;9326;49.468;11.008;2023-09-30T02:56:13;3.50;;;2.40;;
18399;SDS011;9326;49.468;11.008;2023-09-30T02:58:40;3.90;;;2.30;;
18399;SDS011;9326;49.468;11.008;2023-09-30T03:01:11;2.60;;;1.93;;
18399;SDS011;9326;49.468;11.008;2023-09-30T03:03:43;2.23;;;1.73;;
18399;SDS011;9326;49.468;11.008;2023-09-30T03:06:11;3.10;;;1.90;;
18399;SDS011;9326;49.468;11.008;2023-09-30T03:08:39;2.80;;;1.80;;
18399;SDS011;9326;49.468;11.008;2023-09-30T03:11:07;2.80;;;2.03;;
18399;SDS011;9326;49.468;11.008;2023-09-30T03:13:34;2.63;;;2.00;;
18399;SDS011;9326;49.468;11.008;2023-09-30T03:16:02;5.23;;;1.90;;
18399;SDS011;9326;49.468;11.008;2023-09-30T03:18:32;4.87;;;2.00;;
18399;SDS011;9326;49.468;11.008;2023-09-30T03:21:13;3.00;;;2.10;;
18399;SDS011;9326;49.468;11.008;2023-09-30T03:23:40;5.77;;;2.27;;
18399;SDS011;9326;49.468;11.008;2023-09-30T03:26:09;5.40;;;2.57;;
18399;SDS011;9326;49.468;11.008;2023-09-30T03:28:39;4.20;;;2.20;;
18399;SDS011;9326;49.468;11.008;2023-09-30T03:31:20;3.23;;;2.13;;
18399;SDS011;9326;49.468;11.008;2023-09-30T03:34:00;7.03;;;2.47;;
18399;SDS011;9326;49.468;11.008;2023-09-30T03:36:30;4.70;;;2.37;;
18399;SDS011;9326;49.468;11.008;2023-09-30T03:38:58;4.17;;;2.50;;
18399;SDS011;9326;49.468;11.008;2023-09-30T03:41:32;4.10;;;2.70;;
18399;SDS011;9326;49.468;11.008;2023-09-30T03:44:00;4.10;;;2.57;;
18399;SDS011;9326;49.468;11.008;2023-09-30T03:46:28;4.27;;;2.10;;
18399;SDS011;9326;49.468;11.008;2023-09-30T03:48:55;2.87;;;2.00;;
18399;SDS011;9326;49.468;11.008;2023-09-30T03:51:22;4.53;;;2.50;;
18399;SDS011;9326;49.468;11.008;2023-09-30T03:53:52;5.37;;;2.50;;
18399;SDS011;9326;49.468;11.008;2023-09-30T03:56:19;5.43;;;2.50;;
18399;SDS011;9326;49.468;11.008;2023-09-30T03:58:47;5.10;;;2.30;;
18399;SDS011;9326;49.468;11.008;2023-09-30T04:01:14;4.40;;;2.43;;
18399;SDS011;9326;49.468;11.008;2023-09-30T04:03:44;5.30;;;2.60;;
18399;SDS011;9326;49.468;11.008;2023-09-30T04:06:11;5.47;;;2.20;;
18399;SDS011;9326;49.468;11.008;2023-09-30T04:08:39;4.97;;;2.40;;
18399;SDS011;9326;49.468;11.008;2023-09-30T04:11:11;4.20;;;2.33;;
18399;SDS011;9326;49.468;11.008;2023-09-30T04:13:44;3.50;;;2.23;;
18399;SDS011;9326;49.468;11.008;2023-09-30T04:19:18;4.83;;;2.50;;
18399;SDS011;9326;49.468;11.008;2023-09-30T04:34:08;5.40;;;2.67;;
18399;SDS011;9326;49.468;11.008;2023-09-30T04:39:40;4.80;;;2.47;;
18399;SDS011;9326;49.468;11.008;2023-09-30T04:42:22;6.23;;;2.90;;
18399;SDS011;9326;49.468;11.008;2023-09-30T04:45:36;5.77;;;2.73;;
18399;SDS011;9326;49.468;11.008;2023-09-30T05:03:55;6.03;;;2.53;;
18399;SDS011;9326;49.468;11.008;2023-09-30T05:27:50;4.37;;;2.70;;
18399;SDS011;9326;49.468;11.008;2023-09-30T05:30:17;4.33;;;2.63;;
18399;SDS011;9326;49.468;11.008;2023-09-30T05:32:47;7.03;;;3.10;;
18399;SDS011;9326;49.468;11.008;2023-09-30T05:35:17;6.30;;;3.10;;
18399;SDS011;9326;49.468;11.008;2023-09-30T05:37:47;4.83;;;2.90;;
18399;SDS011;9326;49.468;11.008;2023-09-30T05:40:17;5.13;;;2.97;;
18399;SDS011;9326;49.468;11.008;2023-09-30T05:42:47;5.03;;;2.90;;
18399;SDS011;9326;49.468;11.008;2023-09-30T05:45:16;6.10;;;3.03;;
18399;SDS011;9326;49.468;11.008;2023-09-30T05:47:43;5.00;;;3.37;;
18399;SDS011;9326;49.468;11.008;2023-09-30T05:50:10;5.03;;;3.53;;
18399;SDS011;9326;49.468;11.008;2023-09-30T05:52:41;4.73;;;3.20;;
18399;SDS011;9326;49.468;11.008;2023-09-30T05:55:10;5.93;;;3.43;;
18399;SDS011;9326;49.468;11.008;2023-09-30T05:57:39;5.23;;;3.23;;
18399;SDS011;9326;49.468;11.008;2023-09-30T06:00:10;7.20;;;3.70;;
18399;SDS011;9326;49.468;11.008;2023-09-30T06:02:41;4.73;;;3.63;;
18399;SDS011;9326;49.468;11.008;2023-09-30T06:05:09;7.20;;;4.10;;
18399;SDS011;9326;49.468;11.008;2023-09-30T06:07:37;5.87;;;3.83;;
18399;SDS011;9326;49.468;11.008;2023-09-30T06:10:11;5.53;;;3.60;;
18399;SDS011;9326;49.468;11.008;2023-09-30T06:12:45;5.13;;;3.83;;
18399;SDS011;9326;49.468;11.008;2023-09-30T06:15:13;7.97;;;4.07;;
18399;SDS011;9326;49.468;11.008;2023-09-30T06:17:42;5.87;;;4.07;;
18399;SDS011;9326;49.468;11.008;2023-09-30T06:20:10;6.33;;;4.10;;
18399;SDS011;9326;49.468;11.008;2023-09-30T06:22:41;8.00;;;4.63;;
18399;SDS011;9326;49.468;11.008;2023-09-30T06:25:10;5.83;;;3.83;;
18399;SDS011;9326;49.468;11.008;2023-09-30T06:27:37;7.33;;;4.00;;
18399;SDS011;9326;49.468;11.008;2023-09-30T06:30:05;6.03;;;4.00;;
18399;SDS011;9326;49.468;11.008;2023-09-30T06:32:35;6.83;;;4.00;;
18399;SDS011;9326;49.468;11.008;2023-09-30T06:35:05;5.03;;;3.90;;
18399;SDS011;9326;49.468;11.008;2023-09-30T06:37:35;5.87;;;4.00;;
18399;SDS011;9326;49.468;11.008;2023-09-30T06:40:02;5.20;;;4.20;;
18399;SDS011;9326;49.468;11.008;2023-09-30T06:42:30;7.73;;;4.10;;
18399;SDS011;9326;49.468;11.008;2023-09-30T06:44:57;6.70;;;4.13;;
18399;SDS011;9326;49.468;11.008;2023-09-30T06:47:25;6.40;;;4.30;;
18399;SDS011;9326;49.468;11.008;2023-09-30T06:49:53;6.17;;;4.20;;
18399;SDS011;9326;49.468;11.008;2023-09-30T06:52:22;7.17;;;4.20;;
18399;SDS011;9326;49.468;11.008;2023-09-30T06:54:52;7.20;;;4.00;;
18399;SDS011;9326;49.468;11.008;2023-09-30T06:57:21;6.60;;;4.00;;
18399;SDS011;9326;49.468;11.008;2023-09-30T06:59:51;7.33;;;3.90;;
18399;SDS011;9326;49.468;11.008;2023-09-30T07:02:24;4.90;;;3.80;;
18399;SDS011;9326;49.468;11.008;2023-09-30T07:04:55;6.87;;;3.87;;
18399;SDS011;9326;49.468;11.008;2023-09-30T07:07:25;4.97;;;3.60;;
18399;SDS011;9326;49.468;11.008;2023-09-30T07:13:19;5.30;;;3.37;;
18399;SDS011;9326;49.468;11.008;2023-09-30T07:15:58;4.97;;;3.40;;
18399;SDS011;9326;49.468;11.008;2023-09-30T07:18:28;6.07;;;3.70;;
18399;SDS011;9326;49.468;11.008;2023-09-30T07:20:55;4.83;;;3.47;;
18399;SDS011;9326;49.468;11.008;2023-09-30T07:26:25;4.90;;;3.77;;
18399;SDS011;9326;49.468;11.008;2023-09-30T07:28:53;6.73;;;3.87;;
18399;SDS011;9326;49.468;11.008;2023-09-30T07:31:21;5.67;;;3.50;;
18399;SDS011;9326;49.468;11.008;2023-09-30T07:33:49;5.63;;;3.60;;
18399;SDS011;9326;49.468;11.008;2023-09-30T07:36:16;6.17;;;3.77;;
18399;SDS011;9326;49.468;11.008;2023-09-30T07:38:43;5.47;;;3.47;;
18399;SDS011;9326;49.468;11.008;2023-09-30T07:41:10;6.10;;;3.30;;
18399;SDS011;9326;49.468;11.008;2023-09-30T07:43:40;5.83;;;3.30;;
18399;SDS011;9326;49.468;11.008;2023-09-30T07:46:07;6.37;;;3.67;;
18399;SDS011;9326;49.468;11.008;2023-09-30T07:48:35;6.00;;;3.80;;
18399;SDS011;9326;49.468;11.008;2023-09-30T07:51:02;7.63;;;3.53;;
18399;SDS011;9326;49.468;11.008;2023-09-30T07:53:31;7.27;;;3.70;;
18399;SDS011;9326;49.468;11.008;2023-09-30T07:55:58;6.30;;;3.50;;
18399;SDS011;9326;49.468;11.008;2023-09-30T07:58:26;7.00;;;3.90;;
18399;SDS011;9326;49.468;11.008;2023-09-30T08:00:54;5.23;;;3.30;;
18399;SDS011;9326;49.468;11.008;2023-09-30T08:03:22;6.43;;;3.40;;
18399;SDS011;9326;49.468;11.008;2023-09-30T08:05:50;4.63;;;3.43;;
18399;SDS011;9326;49.468;11.008;2023-09-30T08:08:17;5.17;;;3.30;;
18399;SDS011;9326;49.468;11.008;2023-09-30T08:10:44;5.40;;;3.60;;
18399;SDS011;9326;49.468;11.008;2023-09-30T08:13:11;4.53;;;3.20;;
18399;SDS011;9326;49.468;11.008;2023-09-30T08:15:39;5.47;;;3.40;;
18399;SDS011;9326;49.468;11.008;2023-09-30T08:18:08;7.87;;;4.20;;
18399;SDS011;9326;49.468;11.008;2023-09-30T08:20:35;5.20;;;3.47;;
18399;SDS011;9326;49.468;11.008;2023-09-30T08:23:03;8.03;;;3.60;;
18399;SDS011;9326;49.468;11.008;2023-09-30T08:25:30;3.93;;;3.07;;
18399;SDS011;9326;49.468;11.008;2023-09-30T08:27:57;8.43;;;3.50;;
18399;SDS011;9326;49.468;11.008;2023-09-30T08:30:24;5.43;;;3.73;;
18399;SDS011;9326;49.468;11.008;2023-09-30T08:32:51;6.50;;;3.33;;
18399;SDS011;9326;49.468;11.008;2023-09-30T08:35:20;5.77;;;3.27;;
18399;SDS011;9326;49.468;11.008;2023-09-30T08:37:47;6.17;;;3.40;;
18399;SDS011;9326;49.468;11.008;2023-09-30T08:40:15;6.97;;;3.87;;
18399;SDS011;9326;49.468;11.008;2023-09-30T08:42:46;5.83;;;3.10;;
18399;SDS011;9326;49.468;11.008;2023-09-30T08:45:16;4.77;;;3.23;;
18399;SDS011;9326;49.468;11.008;2023-09-30T08:47:44;4.67;;;3.13;;
18399;SDS011;9326;49.468;11.008;2023-09-30T08:50:12;4.40;;;3.27;;
18399;SDS011;9326;49.468;11.008;2023-09-30T08:52:41;5.63;;;2.93;;
18399;SDS011;9326;49.468;11.008;2023-09-30T08:55:09;5.73;;;3.47;;
18399;SDS011;9326;49.468;11.008;2023-09-30T08:57:38;5.57;;;3.30;;
18399;SDS011;9326;49.468;11.008;2023-09-30T09:00:06;5.03;;;3.47;;
18399;SDS011;9326;49.468;11.008;2023-09-30T09:02:36;5.80;;;3.27;;
18399;SDS011;9326;49.468;11.008;2023-09-30T09:05:03;7.87;;;3.83;;
18399;SDS011;9326;49.468;11.008;2023-09-30T09:07:31;6.43;;;3.57;;
18399;SDS011;9326;49.468;11.008;2023-09-30T09:10:07;6.07;;;3.37;;
18399;SDS011;9326;49.468;11.008;2023-09-30T09:12:36;5.73;;;3.40;;
18399;SDS011;9326;49.468;11.008;2023-09-30T09:15:04;33.27;;;27.23;;
18399;SDS011;9326;49.468;11.008;2023-09-30T09:17:41;25.27;;;20.57;;
18399;SDS011;9326;49.468;11.008;2023-09-30T09:20:10;14.57;;;11.47;;
18399;SDS011;9326;49.468;11.008;2023-09-30T09:22:42;8.53;;;6.97;;
18399;SDS011;9326;49.468;11.008;2023-09-30T09:25:11;7.03;;;4.97;;
18399;SDS011;9326;49.468;11.008;2023-09-30T09:27:39;5.40;;;3.00;;
18399;SDS011;9326;49.468;11.008;2023-09-30T09:30:16;6.00;;;2.87;;
18399;SDS011;9326;49.468;11.008;2023-09-30T09:33:00;5.30;;;2.93;;
18399;SDS011;9326;49.468;11.008;2023-09-30T09:35:30;4.83;;;3.20;;
18399;SDS011;9326;49.468;11.008;2023-09-30T09:37:58;5.10;;;3.20;;
18399;SDS011;9326;49.468;11.008;2023-09-30T09:40:28;4.50;;;3.00;;
18399;SDS011;9326;49.468;11.008;2023-09-30T09:42:56;5.30;;;3.10;;
18399;SDS011;9326;49.468;11.008;2023-09-30T09:45:24;6.57;;;2.97;;
18399;SDS011;9326;49.468;11.008;2023-09-30T09:47:52;5.77;;;2.97;;
18399;SDS011;9326;49.468;11.008;2023-09-30T09:50:19;6.13;;;3.17;;
18399;SDS011;9326;49.468;11.008;2023-09-30T09:52:49;7.07;;;2.80;;
18399;SDS011;9326;49.468;11.008;2023-09-30T09:55:17;6.80;;;3.00;;
18399;SDS011;9326;49.468;11.008;2023-09-30T09:57:48;6.47;;;3.00;;
18399;SDS011;9326;49.468;11.008;2023-09-30T10:00:16;4.77;;;2.77;;
18399;SDS011;9326;49.468;11.008;2023-09-30T10:02:44;5.03;;;2.90;;
18399;SDS011;9326;49.468;11.008;2023-09-30T10:05:12;6.23;;;2.90;;
18399;SDS011;9326;49.468;11.008;2023-09-30T10:07:40;3.97;;;2.30;;
18399;SDS011;9326;49.468;11.008;2023-09-30T10:10:10;4.77;;;2.60;;
18399;SDS011;9326;49.468;11.008;2023-09-30T10:12:40;5.97;;;2.90;;
18399;SDS011;9326;49.468;11.008;2023-09-30T10:17:58;4.83;;;2.80;;
18399;SDS011;9326;49.468;11.008;2023-09-30T10:20:28;6.00;;;2.73;;
18399;SDS011;9326;49.468;11.008;2023-09-30T10:25:41;5.10;;;2.77;;
18399;SDS011;9326;49.468;11.008;2023-09-30T10:31:09;4.70;;;2.80;;
18399;SDS011;9326;49.468;11.008;2023-09-30T10:36:27;5.03;;;2.90;;
18399;SDS011;9326;49.468;11.008;2023-09-30T10:38:56;5.93;;;3.30;;
18399;SDS011;9326;49.468;11.008;2023-09-30T10:46:47;6.00;;;3.23;;
18399;SDS011;9326;49.468;11.008;2023-09-30T10:49:30;7.20;;;4.47;;
18399;SDS011;9326;49.468;11.008;2023-09-30T10:51:59;4.70;;;2.97;;
18399;SDS011;9326;49.468;11.008;2023-09-30T10:54:27;6.67;;;3.00;;
18399;SDS011;9326;49.468;11.008;2023-09-30T10:56:55;4.37;;;2.30;;
18399;SDS011;9326;49.468;11.008;2023-09-30T10:59:24;4.33;;;2.47;;
18399;SDS011;9326;49.468;11.008;2023-09-30T11:01:52;4.03;;;2.47;;
18399;SDS011;9326;49.468;11.008;2023-09-30T11:04:20;4.17;;;2.50;;
18399;SDS011;9326;49.468;11.008;2023-09-30T11:06:48;5.00;;;2.40;;
18399;SDS011;9326;49.468;11.008;2023-09-30T11:09:18;4.27;;;2.53;;
18399;SDS011;9326;49.468;11.008;2023-09-30T11:11:45;4.37;;;2.80;;
18399;SDS011;9326;49.468;11.008;2023-09-30T11:14:18;6.00;;;2.90;;
18399;SDS011;9326;49.468;11.008;2023-09-30T11:16:46;6.57;;;3.53;;
18399;SDS011;9326;49.468;11.008;2023-09-30T11:19:13;4.50;;;3.00;;
18399;SDS011;9326;49.468;11.008;2023-09-30T11:21:41;5.13;;;3.00;;
18399;SDS011;9326;49.468;11.008;2023-09-30T11:24:10;5.23;;;3.07;;
18399;SDS011;9326;49.468;11.008;2023-09-30T11:26:39;4.43;;;2.90;;
18399;SDS011;9326;49.468;11.008;2023-09-30T11:29:07;5.23;;;3.13;;
18399;SDS011;9326;49.468;11.008;2023-09-30T11:31:36;5.80;;;2.83;;
18399;SDS011;9326;49.468;11.008;2023-09-30T11:34:04;5.20;;;2.83;;
18399;SDS011;9326;49.468;11.008;2023-09-30T11:36:33;6.40;;;3.00;;
18399;SDS011;9326;49.468;11.008;2023-09-30T11:39:01;5.27;;;2.80;;
18399;SDS011;9326;49.468;11.008;2023-09-30T11:41:34;4.47;;;2.60;;
18399;SDS011;9326;49.468;11.008;2023-09-30T11:44:05;5.20;;;2.90;;
18399;SDS011;9326;49.468;11.008;2023-09-30T11:46:47;5.50;;;3.13;;
18399;SDS011;9326;49.468;11.008;2023-09-30T11:49:23;5.70;;;3.30;;
18399;SDS011;9326;49.468;11.008;2023-09-30T11:51:51;4.70;;;3.20;;
18399;SDS011;9326;49.468;11.008;2023-09-30T11:54:18;7.20;;;5.57;;
18399;SDS011;9326;49.468;11.008;2023-09-30T11:56:47;6.93;;;3.20;;
18399;SDS011;9326;49.468;11.008;2023-09-30T11:59:16;6.27;;;3.47;;
18399;SDS011;9326;49.468;11.008;2023-09-30T12:01:47;6.90;;;4.00;;
18399;SDS011;9326;49.468;11.008;2023-09-30T12:04:14;5.77;;;3.33;;
18399;SDS011;9326;49.468;11.008;2023-09-30T12:06:45;6.17;;;2.90;;
18399;SDS011;9326;49.468;11.008;2023-09-30T12:09:13;4.50;;;2.70;;
18399;SDS011;9326;49.468;11.008;2023-09-30T12:11:42;6.27;;;3.47;;
18399;SDS011;9326;49.468;11.008;2023-09-30T12:14:12;5.00;;;3.03;;
18399;SDS011;9326;49.468;11.008;2023-09-30T12:16:43;5.47;;;3.20;;
18399;SDS011;9326;49.468;11.008;2023-09-30T12:19:11;4.53;;;3.30;;
18399;SDS011;9326;49.468;11.008;2023-09-30T12:21:38;5.77;;;2.93;;
18399;SDS011;9326;49.468;11.008;2023-09-30T12:24:06;3.77;;;2.73;;
18399;SDS011;9326;49.468;11.008;2023-09-30T12:26:34;5.43;;;3.60;;
18399;SDS011;9326;49.468;11.008;2023-09-30T12:29:02;6.53;;;3.00;;
18399;SDS011;9326;49.468;11.008;2023-09-30T12:31:30;6.10;;;3.10;;
18399;SDS011;9326;49.468;11.008;2023-09-30T12:34:00;5.10;;;3.27;;
18399;SDS011;9326;49.468;11.008;2023-09-30T12:36:27;5.67;;;2.90;;
18399;SDS011;9326;49.468;11.008;2023-09-30T12:38:55;4.53;;;3.00;;
18399;SDS011;9326;49.468;11.008;2023-09-30T12:41:22;5.93;;;3.03;;
18399;SDS011;9326;49.468;11.008;2023-09-30T12:43:49;3.90;;;2.60;;
18399;SDS011;9326;49.468;11.008;2023-09-30T12:46:16;4.70;;;2.87;;
18399;SDS011;9326;49.468;11.008;2023-09-30T12:48:44;5.13;;;3.00;;
18399;SDS011;9326;49.468;11.008;2023-09-30T12:51:21;5.20;;;3.07;;
18399;SDS011;9326;49.468;11.008;2023-09-30T12:53:49;5.20;;;3.10;;
18399;SDS011;9326;49.468;11.008;2023-09-30T12:56:17;5.60;;;3.43;;
18399;SDS011;9326;49.468;11.008;2023-09-30T12:58:45;5.83;;;3.53;;
18399;SDS011;9326;49.468;11.008;2023-09-30T13:01:12;6.67;;;3.13;;
18399;SDS011;9326;49.468;11.008;2023-09-30T13:03:39;6.07;;;3.23;;
18399;SDS011;9326;49.468;11.008;2023-09-30T13:06:07;5.97;;;3.50;;
18399;SDS011;9326;49.468;11.008;2023-09-30T13:08:35;5.20;;;3.10;;
18399;SDS011;9326;49.468;11.008;2023-09-30T13:11:03;5.07;;;3.53;;
18399;SDS011;9326;49.468;11.008;2023-09-30T13:13:31;6.37;;;3.37;;
18399;SDS011;9326;49.468;11.008;2023-09-30T13:15:58;5.57;;;3.50;;
18399;SDS011;9326;49.468;11.008;2023-09-30T13:18:26;6.97;;;3.40;;
18399;SDS011;9326;49.468;11.008;2023-09-30T13:20:53;4.07;;;3.03;;
18399;SDS011;9326;49.468;11.008;2023-09-30T13:23:22;6.20;;;3.70;;
18399;SDS011;9326;49.468;11.008;2023-09-30T13:25:50;6.73;;;3.53;;
18399;SDS011;9326;49.468;11.008;2023-09-30T13:28:17;6.77;;;3.20;;
18399;SDS011;9326;49.468;11.008;2023-09-30T13:30:44;7.37;;;3.93;;
18399;SDS011;9326;49.468;11.008;2023-09-30T13:33:13;6.67;;;3.70;;
18399;SDS011;9326;49.468;11.008;2023-09-30T13:35:40;6.33;;;3.60;;
18399;SDS011;9326;49.468;11.008;2023-09-30T13:38:07;6.07;;;3.53;;
18399;SDS011;9326;49.468;11.008;2023-09-30T13:40:34;5.90;;;4.10;;
18399;SDS011;9326;49.468;11.008;2023-09-30T13:43:05;5.07;;;3.47;;
18399;SDS011;9326;49.468;11.008;2023-09-30T13:45:35;6.13;;;3.57;;
18399;SDS011;9326;49.468;11.008;2023-09-30T13:48:03;4.80;;;3.17;;
18399;SDS011;9326;49.468;11.008;2023-09-30T13:50:31;5.30;;;3.53;;
18399;SDS011;9326;49.468;11.008;2023-09-30T13:52:58;6.87;;;3.77;;
18399;SDS011;9326;49.468;11.008;2023-09-30T13:55:27;7.97;;;4.13;;
18399;SDS011;9326;49.468;11.008;2023-09-30T13:57:54;5.93;;;3.93;;
18399;SDS011;9326;49.468;11.008;2023-09-30T14:00:23;8.40;;;4.20;;
18399;SDS011;9326;49.468;11.008;2023-09-30T14:02:51;6.20;;;3.80;;
18399;SDS011;9326;49.468;11.008;2023-09-30T14:05:18;8.43;;;4.53;;
18399;SDS011;9326;49.468;11.008;2023-09-30T14:07:46;6.67;;;4.43;;
18399;SDS011;9326;49.468;11.008;2023-09-30T14:10:16;6.47;;;4.17;;
18399;SDS011;9326;49.468;11.008;2023-09-30T14:12:43;7.40;;;4.20;;
18399;SDS011;9326;49.468;11.008;2023-09-30T14:15:10;6.90;;;3.73;;
18399;SDS011;9326;49.468;11.008;2023-09-30T14:17:39;7.50;;;4.30;;
18399;SDS011;9326;49.468;11.008;2023-09-30T14:20:07;6.93;;;4.20;;
18399;SDS011;9326;49.468;11.008;2023-09-30T14:22:34;7.83;;;4.63;;
18399;SDS011;9326;49.468;11.008;2023-09-30T14:25:02;7.90;;;4.57;;
18399;SDS011;9326;49.468;11.008;2023-09-30T14:27:29;6.97;;;3.67;;
18399;SDS011;9326;49.468;11.008;2023-09-30T14:29:56;8.97;;;4.43;;
18399;SDS011;9326;49.468;11.008;2023-09-30T14:32:25;7.93;;;4.53;;
18399;SDS011;9326;49.468;11.008;2023-09-30T14:34:53;7.50;;;4.17;;
18399;SDS011;9326;49.468;11.008;2023-09-30T14:37:22;7.83;;;4.40;;
18399;SDS011;9326;49.468;11.008;2023-09-30T14:39:49;7.53;;;4.23;;
18399;SDS011;9326;49.468;11.008;2023-09-30T14:42:16;7.73;;;4.43;;
18399;SDS011;9326;49.468;11.008;2023-09-30T14:44:44;8.53;;;4.20;;
18399;SDS011;9326;49.468;11.008;2023-09-30T14:47:11;6.57;;;4.17;;
18399;SDS011;9326;49.468;11.008;2023-09-30T14:49:40;10.27;;;5.00;;
18399;SDS011;9326;49.468;11.008;2023-09-30T14:52:08;8.77;;;4.70;;
18399;SDS011;9326;49.468;11.008;2023-09-30T14:54:36;8.23;;;4.70;;
18399;SDS011;9326;49.468;11.008;2023-09-30T14:57:03;9.40;;;4.67;;
18399;SDS011;9326;49.468;11.008;2023-09-30T14:59:32;7.33;;;4.67;;
18399;SDS011;9326;49.468;11.008;2023-09-30T15:01:59;6.67;;;4.37;;
18399;SDS011;9326;49.468;11.008;2023-09-30T15:04:26;8.43;;;4.70;;
18399;SDS011;9326;49.468;11.008;2023-09-30T15:06:54;8.40;;;4.60;;
18399;SDS011;9326;49.468;11.008;2023-09-30T15:09:22;6.80;;;4.23;;
18399;SDS011;9326;49.468;11.008;2023-09-30T15:11:49;6.87;;;4.30;;
18399;SDS011;9326;49.468;11.008;2023-09-30T15:14:16;7.07;;;4.40;;
18399;SDS011;9326;49.468;11.008;2023-09-30T15:16:43;7.13;;;4.70;;
18399;SDS011;9326;49.468;11.008;2023-09-30T15:19:11;7.10;;;4.33;;
18399;SDS011;9326;49.468;11.008;2023-09-30T15:21:38;7.10;;;4.70;;
18399;SDS011;9326;49.468;11.008;2023-09-30T15:24:06;6.33;;;4.73;;
18399;SDS011;9326;49.468;11.008;2023-09-30T15:26:35;7.57;;;5.20;;
18399;SDS011;9326;49.468;11.008;2023-09-30T15:29:02;8.57;;;5.37;;
18399;SDS011;9326;49.468;11.008;2023-09-30T15:31:31;9.83;;;5.17;;
18399;SDS011;9326;49.468;11.008;2023-09-30T15:33:58;8.73;;;5.00;;
18399;SDS011;9326;49.468;11.008;2023-09-30T15:36:25;9.23;;;5.23;;
18399;SDS011;9326;49.468;11.008;2023-09-30T15:38:52;7.57;;;5.33;;
18399;SDS011;9326;49.468;11.008;2023-09-30T15:41:20;8.50;;;5.00;;
18399;SDS011;9326;49.468;11.008;2023-09-30T15:43:51;9.47;;;4.80;;
18399;SDS011;9326;49.468;11.008;2023-09-30T15:46:18;6.47;;;4.70;;
18399;SDS011;9326;49.468;11.008;2023-09-30T15:48:45;8.17;;;5.10;;
18399;SDS011;9326;49.468;11.008;2023-09-30T15:51:12;9.50;;;5.20;;
18399;SDS011;9326;49.468;11.008;2023-09-30T15:53:40;8.83;;;5.00;;
18399;SDS011;9326;49.468;11.008;2023-09-30T15:56:09;7.83;;;5.10;;
18399;SDS011;9326;49.468;11.008;2023-09-30T15:58:37;8.93;;;5.40;;
18399;SDS011;9326;49.468;11.008;2023-09-30T16:01:05;7.67;;;5.00;;
18399;SDS011;9326;49.468;11.008;2023-09-30T16:03:32;11.40;;;6.00;;
18399;SDS011;9326;49.468;11.008;2023-09-30T16:05:59;7.60;;;5.20;;
18399;SDS011;9326;49.468;11.008;2023-09-30T16:08:30;7.47;;;5.13;;
18399;SDS011;9326;49.468;11.008;2023-09-30T16:11:03;9.70;;;5.67;;
18399;SDS011;9326;49.468;11.008;2023-09-30T16:13:31;10.73;;;6.27;;
18399;SDS011;9326;49.468;11.008;2023-09-30T16:16:01;10.93;;;6.07;;
18399;SDS011;9326;49.468;11.008;2023-09-30T16:18:30;9.90;;;5.63;;
18399;SDS011;9326;49.468;11.008;2023-09-30T16:59:55;9.33;;;5.93;;
18399;SDS011;9326;49.468;11.008;2023-09-30T17:36:34;12.37;;;7.23;;
18399;SDS011;9326;49.468;11.008;2023-09-30T23:17:25;11.40;;;8.17;;
18399;SDS011;9326;49.468;11.008;2023-09-30T23:20:00;11.87;;;8.50;;
18399;SDS011;9326;49.468;11.008;2023-09-30T23:23:06;11.10;;;8.57;;
18399;SDS011;9326;49.468;11.008;2023-09-30T23:28:09;13.63;;;9.00;;
18399;SDS011;9326;49.468;11.008;2023-09-30T23:30:51;11.03;;;8.57;;